Time;durP1;ratioP1;P1;durP2;ratioP2;P2;SDS_P1;SDS_P2;PMS_P1;PMS_P2;Temp;Humidity;BMP_temperature;BMP_pressure;BME280_temperature;BME280_humidity;BME280_pressure;Samples;Min_cycle;Max_cycle;Signal;HPM_P1;HPM_P2
2021/09/11 00:01:44;;;;;;;8.17;2.97;;;;;;;;;;5073037;28;20287;-79
2021/09/11 00:04:11;;;;;;;5.40;2.90;;;;;;;;;;5074167;28;20230;-79
2021/09/11 00:06:38;;;;;;;8.67;3.13;;;;;;;;;;5073970;28;20290;-79
2021/09/11 00:09:06;;;;;;;8.30;3.13;;;;;;;;;;5072261;28;20286;-79
2021/09/11 00:11:34;;;;;;;5.37;2.87;;;;;;;;;;5074376;28;20686;-78
2021/09/11 00:14:01;;;;;;;6.17;2.80;;;;;;;;;;5070580;28;20620;-79
2021/09/11 00:16:29;;;;;;;5.10;3.13;;;;;;;;;;5055256;28;20247;-79
2021/09/11 00:18:57;;;;;;;5.97;3.00;;;;;;;;;;5068128;28;20689;-79
2021/09/11 00:21:25;;;;;;;5.67;2.80;;;;;;;;;;5058931;28;20253;-78
2021/09/11 00:23:52;;;;;;;8.00;2.80;;;;;;;;;;5071680;28;20741;-78
2021/09/11 00:26:19;;;;;;;5.60;3.10;;;;;;;;;;5059609;28;20279;-78
2021/09/11 00:28:46;;;;;;;7.30;3.03;;;;;;;;;;5053768;28;20219;-78
2021/09/11 00:31:13;;;;;;;6.27;2.70;;;;;;;;;;5072087;28;20298;-79
2021/09/11 00:33:41;;;;;;;8.13;3.37;;;;;;;;;;5068658;28;20203;-78
2021/09/11 00:36:09;;;;;;;7.27;3.43;;;;;;;;;;5071853;28;20307;-79
2021/09/11 00:38:36;;;;;;;7.70;3.60;;;;;;;;;;5072580;28;20289;-78
2021/09/11 00:41:04;;;;;;;7.27;3.27;;;;;;;;;;5072549;28;20579;-78
2021/09/11 00:43:34;;;;;;;7.13;3.47;;;;;;;;;;5072611;28;20238;-78
2021/09/11 00:46:01;;;;;;;5.40;3.00;;;;;;;;;;5063597;28;20296;-79
2021/09/11 00:48:29;;;;;;;4.73;2.87;;;;;;;;;;5056291;28;20203;-79
2021/09/11 00:50:56;;;;;;;8.10;2.77;;;;;;;;;;5072388;28;20253;-79
2021/09/11 00:53:25;;;;;;;4.23;2.70;;;;;;;;;;5072310;28;20650;-79
2021/09/11 00:55:52;;;;;;;6.50;2.70;;;;;;;;;;5072142;28;20643;-78
2021/09/11 00:58:20;;;;;;;6.33;2.80;;;;;;;;;;5058937;28;20227;-79
2021/09/11 01:00:47;;;;;;;6.90;2.83;;;;;;;;;;5052706;28;20618;-79
2021/09/11 01:03:14;;;;;;;4.57;3.03;;;;;;;;;;5071787;28;20655;-79
2021/09/11 01:05:42;;;;;;;5.90;3.43;;;;;;;;;;5055812;28;20934;-79
2021/09/11 01:08:09;;;;;;;8.07;3.90;;;;;;;;;;5069284;28;20688;-79
2021/09/11 01:10:39;;;;;;;8.37;4.33;;;;;;;;;;5071957;28;20822;-78
2021/09/11 01:13:07;;;;;;;6.27;4.13;;;;;;;;;;5052224;28;20235;-78
2021/09/11 01:15:35;;;;;;;7.87;3.70;;;;;;;;;;5051915;28;20779;-79
2021/09/11 01:18:02;;;;;;;5.07;3.90;;;;;;;;;;5052020;28;20250;-78
2021/09/11 01:20:29;;;;;;;5.00;3.47;;;;;;;;;;5052223;28;20231;-79
2021/09/11 01:22:57;;;;;;;5.37;3.30;;;;;;;;;;5055568;28;20287;-79
2021/09/11 01:25:25;;;;;;;6.77;3.03;;;;;;;;;;5071153;28;20657;-78
2021/09/11 01:27:53;;;;;;;5.30;3.30;;;;;;;;;;5070834;28;20195;-78
2021/09/11 01:30:21;;;;;;;6.30;2.90;;;;;;;;;;5071696;28;20235;-78
2021/09/11 01:32:49;;;;;;;7.03;2.80;;;;;;;;;;5055115;28;20278;-78
2021/09/11 01:35:17;;;;;;;4.33;2.53;;;;;;;;;;5071488;28;20218;-79
2021/09/11 01:37:44;;;;;;;7.57;2.77;;;;;;;;;;5069698;28;20317;-78
2021/09/11 01:40:12;;;;;;;4.80;2.87;;;;;;;;;;5071666;28;20272;-78
2021/09/11 01:42:41;;;;;;;6.93;2.40;;;;;;;;;;5071699;28;20283;-79
2021/09/11 01:45:09;;;;;;;5.80;2.90;;;;;;;;;;5071702;28;20286;-78
2021/09/11 01:47:37;;;;;;;5.00;2.20;;;;;;;;;;5066264;28;20608;-78
2021/09/11 01:50:04;;;;;;;6.60;3.20;;;;;;;;;;5071155;28;20290;-78
2021/09/11 01:52:31;;;;;;;6.63;2.70;;;;;;;;;;5065343;28;20242;-78
2021/09/11 01:54:58;;;;;;;7.10;2.90;;;;;;;;;;5072007;28;20301;-78
2021/09/11 01:57:26;;;;;;;8.13;2.77;;;;;;;;;;5070546;28;20310;-79
2021/09/11 01:59:54;;;;;;;6.87;2.80;;;;;;;;;;5052648;28;20286;-78
2021/09/11 02:02:21;;;;;;;7.47;2.80;;;;;;;;;;5066432;28;20321;-79
2021/09/11 02:04:49;;;;;;;5.70;2.60;;;;;;;;;;5071391;28;20626;-79
2021/09/11 02:07:16;;;;;;;5.33;2.63;;;;;;;;;;5070736;28;20198;-78
2021/09/11 02:09:43;;;;;;;5.93;2.80;;;;;;;;;;5056394;28;20694;-79
2021/09/11 02:12:11;;;;;;;4.63;2.90;;;;;;;;;;5070768;28;20286;-78
2021/09/11 02:14:38;;;;;;;7.50;3.00;;;;;;;;;;5071211;28;20388;-79
2021/09/11 02:17:07;;;;;;;6.00;2.90;;;;;;;;;;5070777;28;20244;-79
2021/09/11 02:19:34;;;;;;;6.87;2.80;;;;;;;;;;5074491;28;20683;-79
2021/09/11 02:22:02;;;;;;;5.73;2.80;;;;;;;;;;5067218;28;20623;-78
2021/09/11 02:24:30;;;;;;;8.00;2.90;;;;;;;;;;5055356;28;20283;-79
2021/09/11 02:26:57;;;;;;;4.77;2.73;;;;;;;;;;5069448;28;20195;-78
2021/09/11 02:29:25;;;;;;;6.47;3.10;;;;;;;;;;5075470;28;20312;-79
2021/09/11 02:31:52;;;;;;;6.77;2.90;;;;;;;;;;5075602;28;20290;-79
2021/09/11 02:34:21;;;;;;;5.37;2.60;;;;;;;;;;5074822;28;20285;-78
2021/09/11 02:36:48;;;;;;;8.20;2.97;;;;;;;;;;5075189;28;20231;-78
2021/09/11 02:39:15;;;;;;;5.60;2.73;;;;;;;;;;5074902;28;20282;-79
2021/09/11 02:41:42;;;;;;;5.43;2.70;;;;;;;;;;5075501;28;20305;-78
2021/09/11 02:44:10;;;;;;;8.47;2.60;;;;;;;;;;5073766;28;20238;-79
2021/09/11 02:46:37;;;;;;;6.23;2.90;;;;;;;;;;5075353;28;20195;-79
2021/09/11 02:49:05;;;;;;;6.13;2.67;;;;;;;;;;5058411;28;20279;-78
2021/09/11 02:51:33;;;;;;;4.10;2.60;;;;;;;;;;5074146;28;20285;-78
2021/09/11 02:54:01;;;;;;;6.07;2.60;;;;;;;;;;5070268;28;20290;-79
2021/09/11 02:56:28;;;;;;;4.47;2.90;;;;;;;;;;5074141;28;20297;-79
2021/09/11 02:58:55;;;;;;;5.57;3.20;;;;;;;;;;5068704;28;20286;-78
2021/09/11 03:01:24;;;;;;;7.77;2.67;;;;;;;;;;5071990;28;20203;-79
2021/09/11 03:03:52;;;;;;;6.23;2.90;;;;;;;;;;5060715;28;20242;-79
2021/09/11 03:06:19;;;;;;;7.17;2.90;;;;;;;;;;5074138;28;20195;-79
2021/09/11 03:08:47;;;;;;;5.17;3.20;;;;;;;;;;5074379;28;20290;-78
2021/09/11 03:11:15;;;;;;;8.00;3.00;;;;;;;;;;5074459;28;20227;-78
2021/09/11 03:13:42;;;;;;;6.10;2.77;;;;;;;;;;5074509;28;20281;-78
2021/09/11 03:16:10;;;;;;;8.83;2.97;;;;;;;;;;5068354;28;20199;-78
2021/09/11 03:18:37;;;;;;;7.07;3.20;;;;;;;;;;5054268;28;20231;-79
2021/09/11 03:21:04;;;;;;;4.97;3.00;;;;;;;;;;5060714;28;20222;-79
2021/09/11 03:23:32;;;;;;;5.43;2.80;;;;;;;;;;5066718;28;20282;-79
2021/09/11 03:26:00;;;;;;;6.37;2.83;;;;;;;;;;5054437;28;20207;-79
2021/09/11 03:28:28;;;;;;;4.90;2.93;;;;;;;;;;5073643;28;20274;-78
2021/09/11 03:30:56;;;;;;;6.63;3.13;;;;;;;;;;5074344;28;20230;-78
2021/09/11 03:33:23;;;;;;;11.80;3.33;;;;;;;;;;5072894;28;20226;-78
2021/09/11 03:35:50;;;;;;;7.67;2.90;;;;;;;;;;5074219;28;20286;-78
2021/09/11 03:38:17;;;;;;;3.97;2.87;;;;;;;;;;5073266;28;20314;-79
2021/09/11 03:40:44;;;;;;;5.80;3.10;;;;;;;;;;5074117;28;20289;-78
2021/09/11 03:43:13;;;;;;;4.57;2.63;;;;;;;;;;5073988;28;20290;-78
2021/09/11 03:45:40;;;;;;;5.90;2.93;;;;;;;;;;5073931;28;20203;-79
2021/09/11 03:48:08;;;;;;;6.80;3.03;;;;;;;;;;5073802;28;20285;-78
2021/09/11 03:50:35;;;;;;;6.43;3.40;;;;;;;;;;5065337;28;20287;-79
2021/09/11 03:53:02;;;;;;;6.23;3.27;;;;;;;;;;5067619;28;20238;-79
2021/09/11 03:55:29;;;;;;;4.17;3.03;;;;;;;;;;5073824;28;20234;-78
2021/09/11 03:57:56;;;;;;;7.30;4.07;;;;;;;;;;5072860;28;20310;-79
2021/09/11 04:00:25;;;;;;;7.27;3.47;;;;;;;;;;5073659;28;20285;-78
2021/09/11 04:02:52;;;;;;;6.93;3.90;;;;;;;;;;5059052;28;20318;-79
2021/09/11 04:05:20;;;;;;;8.33;4.10;;;;;;;;;;5063581;28;20281;-79
2021/09/11 04:07:47;;;;;;;6.70;4.40;;;;;;;;;;5073439;28;20286;-79
2021/09/11 04:10:14;;;;;;;9.43;4.80;;;;;;;;;;5062110;28;20307;-79
2021/09/11 04:12:41;;;;;;;8.80;4.67;;;;;;;;;;5069794;28;20286;-79
2021/09/11 04:15:09;;;;;;;9.63;4.70;;;;;;;;;;5072473;28;20282;-78
2021/09/11 04:17:38;;;;;;;9.00;4.70;;;;;;;;;;5072958;28;20302;-79
2021/09/11 04:20:06;;;;;;;8.80;5.00;;;;;;;;;;5072267;28;20282;-79
2021/09/11 04:22:33;;;;;;;8.40;5.17;;;;;;;;;;5069114;28;20234;-79
2021/09/11 04:25:00;;;;;;;6.13;4.57;;;;;;;;;;5073022;28;20282;-79
2021/09/11 04:27:27;;;;;;;7.77;4.57;;;;;;;;;;5073458;28;20287;-79
2021/09/11 04:29:54;;;;;;;7.80;4.93;;;;;;;;;;5072437;28;20746;-78
2021/09/11 04:32:22;;;;;;;8.27;5.20;;;;;;;;;;5064592;28;20219;-78
2021/09/11 04:34:50;;;;;;;10.93;5.23;;;;;;;;;;5057412;28;20571;-78
2021/09/11 04:37:17;;;;;;;7.90;5.23;;;;;;;;;;5064229;28;20265;-78
2021/09/11 04:39:45;;;;;;;8.30;5.10;;;;;;;;;;5073009;28;20285;-78
2021/09/11 04:42:12;;;;;;;7.57;4.67;;;;;;;;;;5072661;28;20286;-78
2021/09/11 04:44:39;;;;;;;8.83;5.17;;;;;;;;;;5071466;28;20727;-79
2021/09/11 04:47:06;;;;;;;8.83;4.63;;;;;;;;;;5073005;28;20294;-78
2021/09/11 04:49:34;;;;;;;11.23;5.20;;;;;;;;;;5055160;28;20303;-79
2021/09/11 04:52:02;;;;;;;8.20;5.07;;;;;;;;;;5056956;28;20281;-78
2021/09/11 04:54:29;;;;;;;9.97;4.87;;;;;;;;;;5071459;28;20233;-79
2021/09/11 04:56:57;;;;;;;6.27;4.50;;;;;;;;;;5070322;28;20195;-78
2021/09/11 04:59:25;;;;;;;9.03;4.90;;;;;;;;;;5070446;28;20312;-78
2021/09/11 05:01:52;;;;;;;6.90;5.10;;;;;;;;;;5065404;28;20274;-78
2021/09/11 05:04:20;;;;;;;9.27;5.13;;;;;;;;;;5072760;28;20282;-78
2021/09/11 05:06:47;;;;;;;10.03;4.60;;;;;;;;;;5071928;28;20291;-79
2021/09/11 05:09:16;;;;;;;8.73;5.10;;;;;;;;;;5072223;28;20229;-78
2021/09/11 05:11:43;;;;;;;6.30;5.20;;;;;;;;;;5071159;28;20304;-79
2021/09/11 05:14:10;;;;;;;10.50;5.27;;;;;;;;;;5072081;28;20282;-79
2021/09/11 05:16:37;;;;;;;7.77;4.70;;;;;;;;;;5063729;28;20283;-79
2021/09/11 05:19:05;;;;;;;7.30;4.80;;;;;;;;;;5072263;28;20225;-79
2021/09/11 05:21:32;;;;;;;10.83;5.20;;;;;;;;;;5072169;28;20281;-79
2021/09/11 05:23:59;;;;;;;10.37;5.40;;;;;;;;;;5071582;28;20357;-79
2021/09/11 05:26:28;;;;;;;8.30;5.17;;;;;;;;;;5072406;28;20792;-79
2021/09/11 05:28:55;;;;;;;8.57;5.43;;;;;;;;;;5070816;28;20491;-78
2021/09/11 05:31:22;;;;;;;7.27;5.43;;;;;;;;;;5053183;28;20211;-78
2021/09/11 05:33:49;;;;;;;8.77;5.60;;;;;;;;;;5063750;28;20200;-78
2021/09/11 05:36:16;;;;;;;7.40;5.47;;;;;;;;;;5071997;28;20286;-79
2021/09/11 05:38:43;;;;;;;8.93;6.00;;;;;;;;;;5066409;28;20605;-79
2021/09/11 05:41:11;;;;;;;6.60;5.23;;;;;;;;;;5052128;28;20619;-79
2021/09/11 05:43:39;;;;;;;6.00;5.03;;;;;;;;;;5062606;28;20738;-78
2021/09/11 05:46:06;;;;;;;10.40;5.50;;;;;;;;;;5057111;28;20303;-79
2021/09/11 05:48:34;;;;;;;8.37;5.00;;;;;;;;;;5062754;28;20273;-78
2021/09/11 05:51:01;;;;;;;7.87;4.90;;;;;;;;;;5062258;28;20212;-79
2021/09/11 05:53:28;;;;;;;9.20;4.93;;;;;;;;;;5061948;28;20291;-78
2021/09/11 05:55:56;;;;;;;7.63;4.70;;;;;;;;;;5068693;28;20285;-79
2021/09/11 05:58:24;;;;;;;7.73;4.03;;;;;;;;;;5070333;28;20318;-79
2021/09/11 06:00:52;;;;;;;8.57;4.50;;;;;;;;;;5070352;28;20203;-78
2021/09/11 06:03:19;;;;;;;10.13;5.10;;;;;;;;;;5070449;28;20608;-78
2021/09/11 06:05:47;;;;;;;7.00;5.10;;;;;;;;;;5070946;28;20202;-78
2021/09/11 06:08:14;;;;;;;7.60;5.03;;;;;;;;;;5057365;28;20759;-78
2021/09/11 06:10:42;;;;;;;8.57;4.70;;;;;;;;;;5067779;28;20290;-78
2021/09/11 06:13:09;;;;;;;5.93;4.37;;;;;;;;;;5071361;28;20732;-79
2021/09/11 06:15:36;;;;;;;6.60;4.40;;;;;;;;;;5072009;28;20609;-79
2021/09/11 06:18:05;;;;;;;5.63;4.47;;;;;;;;;;5064799;28;20306;-78
2021/09/11 06:20:32;;;;;;;7.57;4.87;;;;;;;;;;5068945;28;20281;-78
2021/09/11 06:22:59;;;;;;;10.00;5.73;;;;;;;;;;5070005;28;20199;-79
2021/09/11 06:25:26;;;;;;;7.60;5.57;;;;;;;;;;5068303;28;20290;-79
2021/09/11 06:27:55;;;;;;;11.40;6.10;;;;;;;;;;5065413;28;20200;-78
2021/09/11 06:30:23;;;;;;;7.93;5.53;;;;;;;;;;5051310;28;20294;-79
2021/09/11 06:32:50;;;;;;;7.67;5.83;;;;;;;;;;5051763;28;20196;-78
2021/09/11 06:35:19;;;;;;;8.13;5.50;;;;;;;;;;5054964;28;20326;-81
2021/09/11 06:37:46;;;;;;;8.70;5.40;;;;;;;;;;5051369;28;20286;-80
2021/09/11 06:40:14;;;;;;;8.27;5.70;;;;;;;;;;5054061;28;20777;-81
2021/09/11 06:42:42;;;;;;;9.53;5.40;;;;;;;;;;5054576;28;20627;-79
2021/09/11 06:45:10;;;;;;;7.70;5.30;;;;;;;;;;5051543;28;20633;-80
2021/09/11 06:47:37;;;;;;;10.73;5.07;;;;;;;;;;5056221;28;20239;-80
2021/09/11 06:50:04;;;;;;;7.63;5.03;;;;;;;;;;5051885;28;20223;-80
2021/09/11 06:52:36;;;;;;;6.73;5.03;;;;;;;;;;5064987;28;20282;-80
2021/09/11 06:55:03;;;;;;;7.50;4.60;;;;;;;;;;5061723;28;20373;-80
2021/09/11 06:57:34;;;;;;;7.83;4.60;;;;;;;;;;5064710;28;20745;-80
2021/09/11 07:00:03;;;;;;;6.70;4.13;;;;;;;;;;5067319;28;20230;-80
2021/09/11 07:02:36;;;;;;;7.43;3.90;;;;;;;;;;5069255;28;20233;-80
2021/09/11 07:05:03;;;;;;;5.32;3.58;;;;;;;;;;5056825;28;20278;-81
2021/09/11 07:07:31;;;;;;;5.90;3.80;;;;;;;;;;5073460;28;20211;-80
2021/09/11 07:10:02;;;;;;;4.07;3.08;;;;;;;;;;5055928;28;20744;-82
2021/09/11 07:12:30;;;;;;;5.85;3.42;;;;;;;;;;5071489;28;20653;-81
2021/09/11 07:15:01;;;;;;;3.85;2.85;;;;;;;;;;5073907;28;20294;-81
2021/09/11 07:17:28;;;;;;;4.72;2.80;;;;;;;;;;5062893;28;20206;-80
2021/09/11 07:19:55;;;;;;;3.33;2.92;;;;;;;;;;5063381;28;20320;-81
2021/09/11 07:22:22;;;;;;;6.53;2.83;;;;;;;;;;5062464;28;20235;-81
2021/09/11 07:24:53;;;;;;;4.35;2.35;;;;;;;;;;5059927;28;20286;-83
2021/09/11 07:27:25;;;;;;;2.90;2.60;;;;;;;;;;5069655;28;20846;-81
2021/09/11 07:29:53;;;;;;;2.85;2.47;;;;;;;;;;5063612;28;20203;-82
2021/09/11 07:32:20;;;;;;;3.90;2.53;;;;;;;;;;5072727;28;20268;-82
2021/09/11 07:34:47;;;;;;;4.15;2.50;;;;;;;;;;5070263;28;20458;-82
2021/09/11 07:37:17;;;;;;;5.07;2.72;;;;;;;;;;5064627;28;20298;-81
2021/09/11 07:39:47;;;;;;;2.20;1.65;;;;;;;;;;5068333;28;20293;-81
2021/09/11 07:42:14;;;;;;;4.55;1.95;;;;;;;;;;5053744;28;20563;-82
2021/09/11 07:44:43;;;;;;;4.80;1.73;;;;;;;;;;5068408;28;20278;-82
2021/09/11 07:47:10;;;;;;;3.67;2.15;;;;;;;;;;5053958;28;20238;-82
2021/09/11 07:49:37;;;;;;;3.95;2.10;;;;;;;;;;5062442;28;20743;-80
2021/09/11 07:52:13;;;;;;;3.30;2.05;;;;;;;;;;5065181;28;20282;-82
2021/09/11 07:54:41;;;;;;;2.53;1.60;;;;;;;;;;5064411;28;20729;-82
2021/09/11 07:57:08;;;;;;;4.20;1.90;;;;;;;;;;5069849;28;20630;-82
2021/09/11 07:59:35;;;;;;;3.88;1.58;;;;;;;;;;5066579;28;20679;-82
2021/09/11 08:02:04;;;;;;;3.33;1.50;;;;;;;;;;5063620;28;20730;-82
2021/09/11 08:04:31;;;;;;;7.63;1.63;;;;;;;;;;5072865;28;20277;-82
2021/09/11 08:06:58;;;;;;;3.35;0.98;;;;;;;;;;5065820;28;20294;-82
2021/09/11 08:09:25;;;;;;;3.00;1.17;;;;;;;;;;5065543;28;20282;-82
2021/09/11 08:11:53;;;;;;;3.05;0.90;;;;;;;;;;5061354;28;20294;-82
2021/09/11 08:14:20;;;;;;;3.97;1.08;;;;;;;;;;5064733;28;20289;-82
2021/09/11 08:16:49;;;;;;;4.00;1.30;;;;;;;;;;5071021;28;20295;-81
2021/09/11 08:19:17;;;;;;;3.63;1.30;;;;;;;;;;5064578;28;20664;-82
2021/09/11 08:21:45;;;;;;;3.45;1.25;;;;;;;;;;5072158;28;20238;-81
2021/09/11 08:24:12;;;;;;;3.83;1.20;;;;;;;;;;5066787;28;20281;-81
2021/09/11 08:26:39;;;;;;;3.22;1.10;;;;;;;;;;5068675;28;20658;-82
2021/09/11 08:29:06;;;;;;;3.33;1.30;;;;;;;;;;5070591;28;20191;-81
2021/09/11 08:31:34;;;;;;;2.38;1.00;;;;;;;;;;5065776;28;20294;-82
2021/09/11 08:34:01;;;;;;;1.63;0.80;;;;;;;;;;5064036;28;20289;-82
2021/09/11 08:36:30;;;;;;;2.60;1.13;;;;;;;;;;5062327;28;20273;-81
2021/09/11 08:38:57;;;;;;;5.28;1.00;;;;;;;;;;5064098;28;20243;-81
2021/09/11 08:41:27;;;;;;;3.45;1.20;;;;;;;;;;5071825;28;20282;-81
2021/09/11 08:43:55;;;;;;;3.20;0.95;;;;;;;;;;5058789;28;20223;-81
2021/09/11 08:46:23;;;;;;;1.60;0.90;;;;;;;;;;5066950;28;20206;-82
2021/09/11 08:48:50;;;;;;;2.53;0.85;;;;;;;;;;5066481;28;20223;-81
2021/09/11 08:51:17;;;;;;;3.08;1.02;;;;;;;;;;5069869;28;20202;-81
2021/09/11 08:53:45;;;;;;;2.60;0.98;;;;;;;;;;5063767;28;20201;-81
2021/09/11 08:56:13;;;;;;;3.15;1.02;;;;;;;;;;5063285;28;20329;-80
2021/09/11 08:58:40;;;;;;;3.53;1.17;;;;;;;;;;5065329;28;20815;-80
2021/09/11 09:01:08;;;;;;;3.63;1.10;;;;;;;;;;5065530;28;20294;-81
2021/09/11 09:03:37;;;;;;;2.63;0.98;;;;;;;;;;5071219;28;20718;-81
2021/09/11 09:06:14;;;;;;;2.60;1.10;;;;;;;;;;5063278;28;20227;-81
2021/09/11 09:08:41;;;;;;;4.32;1.23;;;;;;;;;;5061480;28;20282;-81
2021/09/11 09:11:17;;;;;;;3.78;1.40;;;;;;;;;;5067831;28;20230;-81
2021/09/11 09:13:50;;;;;;;2.33;1.00;;;;;;;;;;5059335;28;20709;-81
2021/09/11 09:16:17;;;;;;;2.55;1.10;;;;;;;;;;5069744;28;20195;-81
2021/09/11 09:18:45;;;;;;;4.10;1.50;;;;;;;;;;5067169;28;20286;-81
2021/09/11 09:21:19;;;;;;;5.28;1.58;;;;;;;;;;5064953;28;20195;-80
2021/09/11 09:23:47;;;;;;;2.63;1.40;;;;;;;;;;5059830;28;20243;-81
2021/09/11 09:26:14;;;;;;;2.47;1.10;;;;;;;;;;5053238;28;20200;-81
2021/09/11 09:28:43;;;;;;;2.53;1.30;;;;;;;;;;5067993;28;20308;-80
2021/09/11 09:31:11;;;;;;;2.53;1.20;;;;;;;;;;5066345;28;20266;-81
2021/09/11 09:33:39;;;;;;;3.75;1.25;;;;;;;;;;5068255;28;20555;-80
2021/09/11 09:36:07;;;;;;;2.53;1.30;;;;;;;;;;5057354;28;20191;-81
2021/09/11 09:38:34;;;;;;;2.58;1.20;;;;;;;;;;5061494;28;20231;-81
2021/09/11 09:41:01;;;;;;;3.15;1.20;;;;;;;;;;5062331;28;20227;-81
2021/09/11 09:43:30;;;;;;;1.52;1.10;;;;;;;;;;5051930;28;20240;-80
2021/09/11 09:46:08;;;;;;;2.10;1.17;;;;;;;;;;5069974;28;20593;-83
2021/09/11 09:48:36;;;;;;;2.70;1.30;;;;;;;;;;5071729;28;20226;-81
2021/09/11 09:51:04;;;;;;;4.38;1.50;;;;;;;;;;5068585;28;20203;-81
2021/09/11 09:53:31;;;;;;;3.38;1.10;;;;;;;;;;5071203;28;20234;-81
2021/09/11 09:55:59;;;;;;;3.03;1.20;;;;;;;;;;5060028;28;20231;-80
2021/09/11 09:58:26;;;;;;;3.22;1.10;;;;;;;;;;5071273;28;20285;-81
2021/09/11 10:00:53;;;;;;;2.65;1.10;;;;;;;;;;5071847;28;20409;-81
2021/09/11 10:03:22;;;;;;;6.35;1.27;;;;;;;;;;5070128;28;20262;-80
2021/09/11 10:05:51;;;;;;;17.42;10.18;;;;;;;;;;5068578;28;20291;-81
2021/09/11 10:08:19;;;;;;;7.15;3.45;;;;;;;;;;5060616;28;20599;-81
2021/09/11 10:10:47;;;;;;;6.60;2.80;;;;;;;;;;5066576;28;20242;-81
2021/09/11 10:13:16;;;;;;;4.13;1.60;;;;;;;;;;5069787;28;20206;-85
2021/09/11 10:15:51;;;;;;;3.10;1.70;;;;;;;;;;5066848;28;20199;-83
2021/09/11 10:18:37;;;;;;;3.08;1.50;;;;;;;;;;5063967;28;20229;-82
2021/09/11 10:21:21;;;;;;;6.03;2.28;;;;;;;;;;5056160;28;20215;-82
2021/09/11 10:24:11;;;;;;;1.92;1.10;;;;;;;;;;5062704;28;20249;-82
2021/09/11 10:26:45;;;;;;;6.05;3.95;;;;;;;;;;5051480;28;20242;-83
2021/09/11 10:29:31;;;;;;;2.30;1.33;;;;;;;;;;5057746;28;21535;-83
2021/09/11 10:31:58;;;;;;;2.20;1.10;;;;;;;;;;5064451;28;20710;-82
2021/09/11 10:34:44;;;;;;;2.38;1.00;;;;;;;;;;5067660;28;20274;-82
2021/09/11 10:37:13;;;;;;;2.70;1.38;;;;;;;;;;5071421;28;20698;-82
2021/09/11 10:39:40;;;;;;;2.25;1.17;;;;;;;;;;5069145;28;20253;-82
2021/09/11 10:42:08;;;;;;;2.15;1.00;;;;;;;;;;5065408;28;20374;-80
2021/09/11 10:44:39;;;;;;;2.08;1.30;;;;;;;;;;5066492;28;20234;-80
2021/09/11 10:47:07;;;;;;;2.20;1.10;;;;;;;;;;5065866;28;20230;-81
2021/09/11 10:49:35;;;;;;;2.95;1.10;;;;;;;;;;5072902;28;20231;-80
2021/09/11 10:52:04;;;;;;;2.65;1.10;;;;;;;;;;5075684;28;20787;-82
2021/09/11 10:54:33;;;;;;;4.18;1.50;;;;;;;;;;5071613;28;20286;-81
2021/09/11 10:57:05;;;;;;;2.53;1.30;;;;;;;;;;5074541;28;20290;-82
2021/09/11 10:59:34;;;;;;;4.82;1.10;;;;;;;;;;5071568;28;20215;-83
2021/09/11 11:02:03;;;;;;;1.48;1.00;;;;;;;;;;5070366;28;20235;-83
2021/09/11 11:04:31;;;;;;;4.80;3.05;;;;;;;;;;5076497;28;20195;-83
2021/09/11 11:06:59;;;;;;;1.80;1.10;;;;;;;;;;5065613;28;20229;-83
2021/09/11 11:09:26;;;;;;;2.63;1.23;;;;;;;;;;5067220;28;20225;-83
2021/09/11 11:11:55;;;;;;;2.47;1.10;;;;;;;;;;5077706;28;20243;-82
2021/09/11 11:14:23;;;;;;;1.60;1.10;;;;;;;;;;5069714;28;20233;-81
2021/09/11 11:16:52;;;;;;;1.80;1.00;;;;;;;;;;5070606;28;20288;-82
2021/09/11 11:19:23;;;;;;;2.25;1.23;;;;;;;;;;5069619;28;20195;-81
2021/09/11 11:22:08;;;;;;;2.47;1.20;;;;;;;;;;5073525;28;20210;-81
2021/09/11 11:24:37;;;;;;;2.05;1.15;;;;;;;;;;5054514;28;20282;-81
2021/09/11 11:27:07;;;;;;;3.30;1.20;;;;;;;;;;5068864;28;20421;-81
2021/09/11 11:29:34;;;;;;;2.53;1.10;;;;;;;;;;5065697;28;20275;-81
2021/09/11 11:32:02;;;;;;;3.20;1.27;;;;;;;;;;5054478;28;20278;-81
2021/09/11 11:34:30;;;;;;;2.30;1.23;;;;;;;;;;5062847;28;20227;-81
2021/09/11 11:36:58;;;;;;;5.18;1.23;;;;;;;;;;5063688;28;20201;-81
2021/09/11 11:39:26;;;;;;;2.80;1.27;;;;;;;;;;5060991;28;20719;-81
2021/09/11 11:41:57;;;;;;;2.78;1.50;;;;;;;;;;5073483;28;20227;-81
2021/09/11 11:44:26;;;;;;;3.22;1.48;;;;;;;;;;5074555;28;20348;-80
2021/09/11 11:46:55;;;;;;;2.33;1.48;;;;;;;;;;5073075;28;20219;-81
2021/09/11 11:49:22;;;;;;;1.70;1.20;;;;;;;;;;5073520;28;20282;-80
2021/09/11 11:51:54;;;;;;;1.98;1.00;;;;;;;;;;5073084;28;20286;-81
2021/09/11 11:54:21;;;;;;;2.45;1.10;;;;;;;;;;5063211;28;20282;-80
2021/09/11 11:56:49;;;;;;;3.50;1.30;;;;;;;;;;5067794;28;20290;-81
2021/09/11 11:59:26;;;;;;;1.73;1.10;;;;;;;;;;5074181;28;20294;-81
2021/09/11 12:01:54;;;;;;;3.05;1.20;;;;;;;;;;5057372;28;20247;-80
2021/09/11 12:04:23;;;;;;;2.45;1.27;;;;;;;;;;5061350;28;20223;-81
2021/09/11 12:06:51;;;;;;;2.33;1.30;;;;;;;;;;5066874;28;20282;-81
2021/09/11 12:09:18;;;;;;;1.95;1.00;;;;;;;;;;5072759;28;20630;-81
2021/09/11 12:11:47;;;;;;;2.92;1.15;;;;;;;;;;5053199;28;21080;-81
2021/09/11 12:14:15;;;;;;;2.33;1.30;;;;;;;;;;5053361;28;20620;-81
2021/09/11 12:16:44;;;;;;;1.67;1.10;;;;;;;;;;5060567;28;20289;-80
2021/09/11 12:19:13;;;;;;;2.15;1.08;;;;;;;;;;5073764;28;20199;-81
2021/09/11 12:21:40;;;;;;;3.58;1.48;;;;;;;;;;5073228;28;20310;-80
2021/09/11 12:24:18;;;;;;;2.17;1.10;;;;;;;;;;5073037;28;20227;-81
2021/09/11 12:26:45;;;;;;;2.63;1.10;;;;;;;;;;5073491;28;20211;-80
2021/09/11 12:29:15;;;;;;;2.47;1.17;;;;;;;;;;5072162;28;20278;-81
2021/09/11 12:31:52;;;;;;;3.10;1.20;;;;;;;;;;5073333;28;20198;-81
2021/09/11 12:34:20;;;;;;;2.95;1.02;;;;;;;;;;5073364;28;20234;-80
2021/09/11 12:36:49;;;;;;;1.50;1.00;;;;;;;;;;5072984;28;20195;-81
2021/09/11 12:39:30;;;;;;;2.05;1.20;;;;;;;;;;5072552;28;20199;-80
2021/09/11 12:41:59;;;;;;;2.47;1.17;;;;;;;;;;5069687;28;20231;-81
2021/09/11 12:44:30;;;;;;;2.40;1.10;;;;;;;;;;5072065;28;20738;-80
2021/09/11 12:46:59;;;;;;;1.40;1.00;;;;;;;;;;5073220;28;20655;-81
2021/09/11 12:49:27;;;;;;;1.98;1.00;;;;;;;;;;5064754;28;20573;-81
2021/09/11 12:51:55;;;;;;;2.08;1.00;;;;;;;;;;5072704;28;20278;-80
2021/09/11 12:54:23;;;;;;;2.70;1.02;;;;;;;;;;5054893;28;20346;-81
2021/09/11 12:56:51;;;;;;;1.77;1.00;;;;;;;;;;5067774;28;20287;-81
2021/09/11 12:59:19;;;;;;;1.80;1.02;;;;;;;;;;5072031;28;20223;-81
2021/09/11 13:01:47;;;;;;;2.67;1.27;;;;;;;;;;5071618;28;20229;-81
2021/09/11 13:04:18;;;;;;;1.88;1.40;;;;;;;;;;5068906;28;20195;-81
2021/09/11 13:06:45;;;;;;;1.77;0.95;;;;;;;;;;5059046;28;20230;-80
2021/09/11 13:09:13;;;;;;;3.50;1.35;;;;;;;;;;5072163;28;20282;-81
2021/09/11 13:11:41;;;;;;;2.47;1.00;;;;;;;;;;5073092;28;20227;-81
2021/09/11 13:14:08;;;;;;;1.98;1.13;;;;;;;;;;5072591;28;20228;-80
2021/09/11 13:16:36;;;;;;;3.60;1.20;;;;;;;;;;5072384;28;20199;-80
2021/09/11 13:19:04;;;;;;;2.60;1.13;;;;;;;;;;5071575;28;20298;-81
2021/09/11 13:21:33;;;;;;;2.00;1.00;;;;;;;;;;5063407;28;20220;-81
2021/09/11 13:24:00;;;;;;;1.75;0.93;;;;;;;;;;5058404;28;20234;-81
2021/09/11 13:26:29;;;;;;;2.65;1.00;;;;;;;;;;5069456;28;20346;-81
2021/09/11 13:28:57;;;;;;;2.22;1.10;;;;;;;;;;5072068;28;20290;-80
2021/09/11 13:31:24;;;;;;;2.38;1.05;;;;;;;;;;5071748;28;20278;-81
2021/09/11 13:33:51;;;;;;;2.78;1.00;;;;;;;;;;5071261;28;20203;-81
2021/09/11 13:36:19;;;;;;;1.80;1.10;;;;;;;;;;5072135;28;20230;-81
2021/09/11 13:38:48;;;;;;;2.15;1.23;;;;;;;;;;5057495;28;20290;-81
2021/09/11 13:41:16;;;;;;;1.33;0.88;;;;;;;;;;5056885;28;20319;-81
2021/09/11 13:43:43;;;;;;;1.40;1.15;;;;;;;;;;5067485;28;20286;-81
2021/09/11 13:46:10;;;;;;;2.05;1.05;;;;;;;;;;5055936;28;20199;-81
2021/09/11 13:48:38;;;;;;;2.55;1.08;;;;;;;;;;5063503;28;20195;-81
2021/09/11 13:51:05;;;;;;;2.15;1.08;;;;;;;;;;5068249;28;20203;-81
2021/09/11 13:53:33;;;;;;;1.63;0.90;;;;;;;;;;5067380;28;20302;-81
2021/09/11 13:56:02;;;;;;;1.63;1.00;;;;;;;;;;5070619;28;20244;-81
2021/09/11 13:58:30;;;;;;;1.55;1.10;;;;;;;;;;5066346;28;20287;-81
2021/09/11 14:00:57;;;;;;;2.08;1.13;;;;;;;;;;5066515;28;20327;-81
2021/09/11 14:03:24;;;;;;;1.98;0.88;;;;;;;;;;5067617;28;20325;-81
2021/09/11 14:05:51;;;;;;;2.67;1.10;;;;;;;;;;5052218;28;20679;-81
2021/09/11 14:08:20;;;;;;;2.30;0.95;;;;;;;;;;5055334;28;20242;-81
2021/09/11 14:10:47;;;;;;;1.10;0.73;;;;;;;;;;5054773;28;20624;-81
2021/09/11 14:13:15;;;;;;;1.17;0.90;;;;;;;;;;5051603;28;20283;-81
2021/09/11 14:15:43;;;;;;;0.88;0.70;;;;;;;;;;5065207;28;20285;-81
2021/09/11 14:18:12;;;;;;;2.45;1.00;;;;;;;;;;5070636;28;20762;-81
2021/09/11 14:20:39;;;;;;;1.63;1.02;;;;;;;;;;5069059;28;20222;-81
2021/09/11 14:23:06;;;;;;;2.45;1.10;;;;;;;;;;5063055;28;20294;-82
2021/09/11 14:25:33;;;;;;;2.45;1.08;;;;;;;;;;5058932;28;20279;-82
2021/09/11 14:28:01;;;;;;;3.00;1.08;;;;;;;;;;5074558;28;20678;-82
2021/09/11 14:30:29;;;;;;;1.98;0.80;;;;;;;;;;5067070;28;20191;-82
2021/09/11 14:32:57;;;;;;;2.58;1.10;;;;;;;;;;5070617;28;20223;-82
2021/09/11 14:35:24;;;;;;;1.67;1.15;;;;;;;;;;5070705;28;20299;-82
2021/09/11 14:37:51;;;;;;;2.45;1.10;;;;;;;;;;5058748;28;20203;-83
2021/09/11 14:40:18;;;;;;;2.03;0.90;;;;;;;;;;5062416;28;20650;-83
2021/09/11 14:42:46;;;;;;;1.23;1.00;;;;;;;;;;5068750;28;20202;-83
2021/09/11 14:45:13;;;;;;;1.40;0.95;;;;;;;;;;5068376;28;20209;-83
2021/09/11 14:47:42;;;;;;;2.55;0.93;;;;;;;;;;5072753;28;20235;-83
2021/09/11 14:50:10;;;;;;;1.73;0.98;;;;;;;;;;5058903;28;20234;-83